createdAt,value
2022-12-27T00:00:02.465Z,0
2022-12-27T00:15:02.903Z,0
2022-12-27T00:30:02.340Z,0
2022-12-27T00:45:02.791Z,0
2022-12-27T01:00:09.534Z,0
2022-12-27T01:15:02.787Z,0
2022-12-27T01:30:02.092Z,0
2022-12-27T01:45:02.524Z,0
2022-12-27T02:00:02.957Z,0
2022-12-27T02:15:02.390Z,0
2022-12-27T02:30:02.843Z,0
2022-12-27T02:45:02.262Z,0
2022-12-27T03:00:02.809Z,0
2022-12-27T03:15:03.133Z,0
2022-12-27T03:30:02.782Z,0
2022-12-27T03:45:03.030Z,0
2022-12-27T04:00:02.429Z,0
2022-12-27T04:15:02.873Z,0
2022-12-27T04:30:02.338Z,0
2022-12-27T04:45:02.852Z,0
2022-12-27T05:00:02.189Z,0
2022-12-27T05:15:02.853Z,0
2022-12-27T05:45:02.519Z,0
2022-12-27T06:00:02.976Z,0
2022-12-27T06:15:02.400Z,0
2022-12-27T06:30:02.852Z,0
2022-12-27T06:45:02.251Z,0
2022-12-27T07:00:02.880Z,0
2022-12-27T07:15:02.142Z,0
2022-12-27T07:30:02.600Z,0
2022-12-27T07:45:03.036Z,0
2022-12-27T08:00:02.452Z,4
2022-12-27T08:15:02.949Z,15
2022-12-27T08:30:02.330Z,24
2022-12-27T08:45:02.890Z,41
2022-12-27T09:00:02.221Z,88
2022-12-27T09:15:02.663Z,88
2022-12-27T09:30:03.096Z,60
2022-12-27T09:45:02.519Z,59
2022-12-27T10:00:02.979Z,134
2022-12-27T10:15:02.414Z,172
2022-12-27T10:30:02.926Z,95
2022-12-27T10:45:02.289Z,84
2022-12-27T11:00:02.923Z,200
2022-12-27T11:15:02.152Z,78
2022-12-27T11:30:02.614Z,135
2022-12-27T11:45:03.080Z,199
2022-12-27T12:00:02.486Z,203
2022-12-27T12:15:02.958Z,135
2022-12-27T12:30:02.373Z,88
2022-12-27T12:45:02.947Z,86
2022-12-27T13:00:02.231Z,121
2022-12-27T13:15:02.681Z,90
2022-12-27T13:30:06.700Z,75
2022-12-27T13:45:02.544Z,51
2022-12-27T14:00:03.013Z,35
2022-12-27T14:15:02.426Z,54
2022-12-27T14:30:02.976Z,27
2022-12-27T14:45:02.279Z,27
2022-12-27T15:00:02.950Z,7
2022-12-27T15:15:02.153Z,0
2022-12-27T15:30:02.680Z,0
2022-12-27T16:00:02.486Z,0
2022-12-27T16:15:03.001Z,0
2022-12-27T16:30:02.372Z,0
2022-12-27T16:45:03.105Z,0
2022-12-27T17:00:02.239Z,0
2022-12-27T17:15:02.691Z,0
2022-12-27T17:30:03.127Z,0
2022-12-27T17:45:02.544Z,0
2022-12-27T18:00:03.031Z,0
2022-12-27T18:15:02.410Z,0
2022-12-27T18:30:03.065Z,0
2022-12-27T18:45:02.268Z,0
2022-12-27T19:00:02.748Z,0
2022-12-27T19:15:03.162Z,0
2022-12-27T19:30:02.578Z,0
2022-12-27T19:45:03.062Z,0
2022-12-27T20:00:08.456Z,0
2022-12-27T20:15:03.109Z,0
2022-12-27T20:30:02.308Z,0
2022-12-27T20:45:02.771Z,0
2022-12-27T21:00:03.209Z,0
2022-12-27T21:15:02.638Z,0
2022-12-27T21:30:03.113Z,0
2022-12-27T21:45:02.532Z,0
2022-12-27T22:00:03.112Z,0
2022-12-27T22:15:02.415Z,0
2022-12-27T22:30:03.078Z,0
2022-12-27T22:45:02.281Z,0
2022-12-27T23:00:02.794Z,0
2022-12-27T23:15:02.147Z,0
2022-12-27T23:30:02.582Z,0
2022-12-27T23:45:03.109Z,0
